createdAt,value
2023-04-18T00:00:11.188Z,102467.25
2023-04-18T00:02:40.135Z,102464.03
2023-04-18T00:05:12.334Z,102466.28
2023-04-18T00:07:41.287Z,102464.19
2023-04-18T00:10:10.156Z,102466.38
2023-04-18T00:12:39.155Z,102458.13
2023-04-18T00:15:09.883Z,102462.22
2023-04-18T00:17:39.503Z,102455.81
2023-04-18T00:20:12.590Z,102449.91
2023-04-18T00:22:42.662Z,102453.25
2023-04-18T00:25:12.088Z,102449.56
2023-04-18T00:27:40.732Z,102450.66
2023-04-18T00:30:10.750Z,102444.78
2023-04-18T00:32:39.265Z,102444.56
2023-04-18T00:35:08.406Z,102443.31
2023-04-18T00:37:38.365Z,102438.00
2023-04-18T00:40:08.188Z,102447.81
2023-04-18T00:42:36.465Z,102442.72
2023-04-18T00:45:05.437Z,102443.34
2023-04-18T00:47:33.750Z,102443.63
2023-04-18T00:50:02.227Z,102440.75
2023-04-18T00:52:31.950Z,102444.84
2023-04-18T00:55:01.599Z,102445.47
2023-04-18T00:57:30.972Z,102447.19
2023-04-18T01:00:00.915Z,102441.28
2023-04-18T01:02:30.605Z,102443.00
2023-04-18T01:04:59.522Z,102443.91
2023-04-18T01:07:27.933Z,102432.59
2023-04-18T01:09:56.398Z,102439.44
2023-04-18T01:12:26.142Z,102436.25
2023-04-18T01:14:54.407Z,102439.03
2023-04-18T01:17:23.378Z,102430.44
2023-04-18T01:19:51.731Z,102441.84
2023-04-18T01:22:21.390Z,102429.75
2023-04-18T01:24:51.058Z,102434.63
2023-04-18T01:27:21.359Z,102420.44
2023-04-18T01:29:49.632Z,102427.56
2023-04-18T01:32:20.224Z,102422.25
2023-04-18T01:34:48.556Z,102430.16
2023-04-18T01:37:17.630Z,102418.06
2023-04-18T01:39:45.903Z,102420.56
2023-04-18T01:42:15.494Z,102424.66
2023-04-18T01:44:43.946Z,102411.28
2023-04-18T01:47:12.146Z,102412.69
2023-04-18T01:49:42.859Z,102413.59
2023-04-18T01:52:14.115Z,102413.09
2023-04-18T01:54:42.436Z,102408.09
2023-04-18T01:57:10.765Z,102404.06
2023-04-18T01:59:40.467Z,102408.47
2023-04-18T02:02:08.974Z,102404.44
2023-04-18T02:04:37.249Z,102410.47
2023-04-18T02:07:05.567Z,102395.66
2023-04-18T02:09:33.816Z,102401.19
2023-04-18T02:12:03.356Z,102396.38
2023-04-18T02:14:34.486Z,102392.38
2023-04-18T02:17:03.971Z,102400.22
2023-04-18T02:19:32.238Z,102401.66
2023-04-18T02:22:00.500Z,102404.13
2023-04-18T02:24:28.813Z,102405.53
2023-04-18T02:26:57.063Z,102395.06
2023-04-18T02:29:25.385Z,102406.44
2023-04-18T02:31:53.714Z,102398.94
2023-04-18T02:34:23.419Z,102396.00
2023-04-18T02:36:51.655Z,102402.84
2023-04-18T02:39:20.034Z,102407.69
2023-04-18T02:41:48.292Z,102403.69
2023-04-18T02:44:17.133Z,102401.41
2023-04-18T02:46:45.406Z,102404.16
2023-04-18T02:49:13.665Z,102396.69
2023-04-18T02:51:43.599Z,102405.34
2023-04-18T02:54:12.097Z,102398.34
2023-04-18T02:56:42.520Z,102409.69
2023-04-18T02:59:10.799Z,102400.31
2023-04-18T03:01:39.302Z,102403.34
2023-04-18T03:04:07.931Z,102391.22
2023-04-18T03:06:36.136Z,102399.31
2023-04-18T03:09:06.470Z,102401.78
2023-04-18T03:11:34.733Z,102395.91
2023-04-18T03:14:02.999Z,102397.00
2023-04-18T03:16:32.224Z,102391.91
2023-04-18T03:19:01.524Z,102389.78
2023-04-18T03:21:29.742Z,102397.66
2023-04-18T03:23:58.047Z,102406.03
2023-04-18T03:29:48.685Z,102406.13
2023-04-18T03:32:17.353Z,102415.59
2023-04-18T03:34:45.836Z,102407.78
2023-04-18T03:37:27.884Z,102413.44
2023-04-18T03:39:56.084Z,102410.56
2023-04-18T03:42:24.259Z,102404.94
2023-04-18T03:44:53.769Z,102399.06
2023-04-18T03:47:21.918Z,102400.16
2023-04-18T03:49:50.090Z,102414.69
2023-04-18T03:52:20.115Z,102406.91
2023-04-18T03:54:48.294Z,102407.22
2023-04-18T03:57:16.461Z,102406.41
2023-04-18T03:59:46.139Z,102404.00
2023-04-18T04:02:17.460Z,102406.97
2023-04-18T04:04:45.763Z,102404.56
2023-04-18T04:07:13.999Z,102404.06
2023-04-18T04:09:42.200Z,102402.75
2023-04-18T04:12:10.388Z,102405.44
2023-04-18T04:14:38.576Z,102401.44
2023-04-18T04:17:07.301Z,102404.94
2023-04-18T04:19:36.826Z,102407.41
2023-04-18T04:22:05.181Z,102413.88
2023-04-18T04:24:33.701Z,102410.66
2023-04-18T04:27:03.699Z,102412.84
2023-04-18T04:29:32.185Z,102414.78
2023-04-18T04:32:00.558Z,102424.75
2023-04-18T04:34:28.788Z,102421.22
2023-04-18T04:36:58.331Z,102420.44
2023-04-18T04:39:26.554Z,102415.63
2023-04-18T04:41:54.844Z,102427.50
2023-04-18T04:44:25.888Z,102423.19
2023-04-18T04:46:54.431Z,102432.06
2023-04-18T04:49:22.661Z,102423.19
2023-04-18T04:51:50.923Z,102419.69
2023-04-18T04:54:20.576Z,102429.66
2023-04-18T04:56:48.794Z,102431.28
2023-04-18T04:59:17.355Z,102435.03
2023-04-18T05:01:46.620Z,102442.03
2023-04-18T05:04:15.693Z,102433.69
2023-04-18T05:06:44.255Z,102448.75
2023-04-18T05:09:12.466Z,102444.16
2023-04-18T05:11:41.972Z,102439.28
2023-04-18T05:14:10.243Z,102445.97
2023-04-18T05:16:38.460Z,102441.09
2023-04-18T05:19:07.118Z,102441.34
2023-04-18T05:21:35.627Z,102452.34
2023-04-18T05:24:03.823Z,102456.84
2023-04-18T05:26:32.059Z,102458.41
2023-04-18T05:29:01.636Z,102461.53
2023-04-18T05:31:30.911Z,102460.06
2023-04-18T05:33:59.217Z,102457.56
2023-04-18T05:36:27.805Z,102460.16
2023-04-18T05:38:56.023Z,102465.16
2023-04-18T05:41:24.348Z,102464.00
2023-04-18T05:44:02.327Z,102477.41
2023-04-18T05:46:34.423Z,102481.94
2023-04-18T05:49:03.507Z,102488.38
2023-04-18T05:51:31.994Z,102479.09
2023-04-18T05:54:00.242Z,102479.50
2023-04-18T05:56:28.513Z,102489.16
2023-04-18T05:58:56.682Z,102489.16
2023-04-18T06:01:24.893Z,102499.94
2023-04-18T06:03:55.248Z,102498.31
2023-04-18T06:06:23.859Z,102502.41
2023-04-18T06:08:52.089Z,102510.19
2023-04-18T06:11:21.241Z,102504.78
2023-04-18T06:13:49.737Z,102503.00
2023-04-18T06:16:18.078Z,102509.09
2023-04-18T06:18:46.312Z,102516.91
2023-04-18T06:21:15.871Z,102513.13
2023-04-18T06:23:44.072Z,102515.50
2023-04-18T06:26:12.995Z,102513.03
2023-04-18T06:28:41.390Z,102517.63
2023-04-18T06:31:09.731Z,102512.75
2023-04-18T06:33:38.651Z,102510.56
2023-04-18T06:36:08.912Z,102512.44
2023-04-18T06:38:38.553Z,102507.84
2023-04-18T06:41:06.840Z,102514.56
2023-04-18T06:43:35.843Z,102517.16
2023-04-18T06:46:06.053Z,102530.38
2023-04-18T06:48:34.466Z,102527.56
2023-04-18T06:51:02.907Z,102519.41
2023-04-18T06:53:31.119Z,102516.59
2023-04-18T06:56:01.104Z,102524.66
2023-04-18T06:58:30.240Z,102520.25
2023-04-18T07:00:58.419Z,102529.34
2023-04-18T07:03:26.995Z,102532.44
2023-04-18T07:05:55.666Z,102532.06
2023-04-18T07:08:23.901Z,102537.09
2023-04-18T07:10:52.743Z,102534.78
2023-04-18T07:13:22.281Z,102537.91
2023-04-18T07:15:50.518Z,102544.00
2023-04-18T07:18:30.333Z,102538.50
2023-04-18T07:21:07.391Z,102539.69
2023-04-18T07:23:36.111Z,102542.31
2023-04-18T07:26:05.805Z,102534.41
2023-04-18T07:28:35.559Z,102534.31
2023-04-18T07:31:04.635Z,102533.91
2023-04-18T07:33:33.876Z,102536.38
2023-04-18T07:36:02.805Z,102540.28
2023-04-18T07:38:31.040Z,102537.66
2023-04-18T07:40:59.850Z,102548.25
2023-04-18T07:43:28.290Z,102543.44
2023-04-18T07:45:58.022Z,102542.88
2023-04-18T07:48:26.857Z,102545.38
2023-04-18T07:50:55.609Z,102535.63
2023-04-18T07:53:23.902Z,102539.50
2023-04-18T07:55:54.357Z,102542.97
2023-04-18T07:58:22.861Z,102540.81
2023-04-18T08:00:51.051Z,102534.50
2023-04-18T08:03:20.890Z,102529.41
2023-04-18T08:05:50.137Z,102543.47
2023-04-18T08:08:18.548Z,102532.53
2023-04-18T08:10:47.045Z,102529.81
2023-04-18T08:13:15.340Z,102539.31
2023-04-18T08:15:44.097Z,102535.56
2023-04-18T08:18:12.356Z,102533.22
2023-04-18T08:20:42.024Z,102541.72
2023-04-18T08:23:12.788Z,102547.25
2023-04-18T08:25:41.560Z,102547.09
2023-04-18T08:28:09.838Z,102551.16
2023-04-18T08:30:38.062Z,102548.97
2023-04-18T08:33:06.426Z,102549.00
2023-04-18T08:35:35.683Z,102533.84
2023-04-18T08:38:05.225Z,102541.34
2023-04-18T08:40:33.669Z,102551.94
2023-04-18T08:43:04.928Z,102554.22
2023-04-18T08:45:33.372Z,102559.19
2023-04-18T08:48:03.675Z,102561.75
2023-04-18T08:50:33.133Z,102565.56
2023-04-18T08:53:02.165Z,102555.78
2023-04-18T08:55:33.593Z,102551.81
2023-04-18T08:58:02.241Z,102563.59
2023-04-18T09:00:30.852Z,102562.84
2023-04-18T09:02:59.367Z,102549.50
2023-04-18T09:05:28.495Z,102550.28
2023-04-18T09:07:57.490Z,102551.97
2023-04-18T09:10:33.016Z,102545.50
2023-04-18T09:13:04.267Z,102553.16
2023-04-18T09:15:32.617Z,102558.72
2023-04-18T09:18:03.088Z,102555.47
2023-04-18T09:20:38.002Z,102550.59
2023-04-18T09:23:10.490Z,102547.50
2023-04-18T09:25:46.424Z,102550.59
2023-04-18T09:28:26.929Z,102557.19
2023-04-18T09:30:56.544Z,102551.16
2023-04-18T09:33:32.541Z,102556.59
2023-04-18T09:36:19.839Z,102556.91
2023-04-18T09:38:48.649Z,102555.31
2023-04-18T09:41:21.351Z,102554.50
2023-04-18T09:43:50.383Z,102556.63
2023-04-18T09:46:18.672Z,102555.69
2023-04-18T09:48:46.843Z,102554.41
2023-04-18T09:51:17.236Z,102548.69
2023-04-18T09:53:47.502Z,102550.78
2023-04-18T09:56:22.098Z,102558.66
2023-04-18T09:58:57.284Z,102559.16
2023-04-18T10:01:29.176Z,102545.63
2023-04-18T10:03:59.052Z,102553.78
2023-04-18T10:06:29.749Z,102548.63
2023-04-18T10:08:58.468Z,102541.75
2023-04-18T10:11:28.535Z,102546.34
2023-04-18T10:14:02.050Z,102545.34
2023-04-18T10:16:32.132Z,102550.44
2023-04-18T10:19:21.863Z,102556.91
2023-04-18T10:21:55.358Z,102537.16
2023-04-18T10:24:53.073Z,102552.72
2023-04-18T10:27:59.320Z,102550.50
2023-04-18T10:31:04.150Z,102542.78
2023-04-18T10:33:42.438Z,102543.78
2023-04-18T10:36:20.460Z,102547.44
2023-04-18T10:38:51.649Z,102539.13
2023-04-18T10:41:25.261Z,102552.41
2023-04-18T10:44:23.821Z,102540.38
2023-04-18T10:47:23.577Z,102539.28
2023-04-18T10:50:01.313Z,102546.16
2023-04-18T10:52:30.422Z,102543.66
2023-04-18T10:55:17.043Z,102542.31
2023-04-18T10:57:46.794Z,102532.22
2023-04-18T11:00:20.529Z,102536.38
2023-04-18T11:02:55.914Z,102545.13
2023-04-18T11:05:26.723Z,102537.06
2023-04-18T11:07:55.605Z,102531.31
2023-04-18T11:10:25.612Z,102540.06
2023-04-18T11:12:55.514Z,102543.44
2023-04-18T11:15:27.976Z,102537.44
2023-04-18T11:18:00.440Z,102543.78
2023-04-18T11:20:29.530Z,102532.16
2023-04-18T11:23:00.092Z,102537.72
2023-04-18T11:25:30.316Z,102536.13
2023-04-18T11:28:01.642Z,102539.19
2023-04-18T11:30:38.550Z,102535.22
2023-04-18T11:33:08.811Z,102531.13
2023-04-18T11:35:41.782Z,102528.72
2023-04-18T11:38:12.326Z,102538.00
2023-04-18T11:40:41.003Z,102528.00
2023-04-18T11:43:09.282Z,102531.13
2023-04-18T11:45:38.984Z,102541.44
2023-04-18T11:48:07.308Z,102536.44
2023-04-18T11:50:38.370Z,102539.69
2023-04-18T11:53:06.402Z,102536.69
2023-04-18T11:55:34.673Z,102539.63
2023-04-18T11:58:03.489Z,102529.28
2023-04-18T12:00:34.394Z,102535.69
2023-04-18T12:03:05.658Z,102521.47
2023-04-18T12:05:36.102Z,102522.97
2023-04-18T12:08:09.985Z,102518.66
2023-04-18T12:10:38.799Z,102519.28
2023-04-18T12:13:09.750Z,102521.56
2023-04-18T12:15:41.491Z,102517.72
2023-04-18T12:18:14.127Z,102515.59
2023-04-18T12:20:46.221Z,102512.94
2023-04-18T12:23:30.855Z,102511.19
2023-04-18T12:26:03.840Z,102506.59
2023-04-18T12:28:33.207Z,102508.56
2023-04-18T12:31:01.664Z,102509.16
2023-04-18T12:33:31.977Z,102515.41
2023-04-18T12:36:00.926Z,102514.97
2023-04-18T12:38:29.430Z,102519.47
2023-04-18T12:40:57.751Z,102515.03
2023-04-18T12:43:26.608Z,102517.28
2023-04-18T12:45:55.085Z,102499.03
2023-04-18T12:48:23.502Z,102506.97
2023-04-18T12:50:53.155Z,102503.13
2023-04-18T12:53:21.424Z,102500.88
2023-04-18T12:55:49.674Z,102502.13
2023-04-18T12:58:20.408Z,102505.00
2023-04-18T13:00:48.945Z,102494.56
2023-04-18T13:03:17.555Z,102503.66
2023-04-18T13:05:46.102Z,102502.38
2023-04-18T13:08:18.006Z,102498.72
2023-04-18T13:10:47.681Z,102501.69
2023-04-18T13:13:16.234Z,102500.75
2023-04-18T13:15:44.482Z,102500.94
2023-04-18T13:18:12.709Z,102497.97
2023-04-18T13:20:41.112Z,102502.81
2023-04-18T13:23:09.359Z,102495.69
2023-04-18T13:25:39.503Z,102490.91
2023-04-18T13:28:07.701Z,102502.47
2023-04-18T13:30:36.628Z,102503.56
2023-04-18T13:33:05.032Z,102499.66
2023-04-18T13:35:33.290Z,102495.28
2023-04-18T13:38:01.492Z,102496.97
2023-04-18T13:40:29.746Z,102491.78
2023-04-18T13:42:59.310Z,102498.72
2023-04-18T13:45:27.874Z,102492.38
2023-04-18T13:47:56.188Z,102495.41
2023-04-18T13:50:24.604Z,102494.94
2023-04-18T13:52:54.583Z,102498.25
2023-04-18T13:55:23.103Z,102502.69
2023-04-18T13:57:51.311Z,102491.88
2023-04-18T14:00:21.957Z,102488.63
2023-04-18T14:02:51.142Z,102492.34
2023-04-18T14:05:19.781Z,102486.34
2023-04-18T14:07:48.796Z,102485.22
2023-04-18T14:10:17.128Z,102483.84
2023-04-18T14:12:45.361Z,102473.75
2023-04-18T14:15:13.759Z,102477.69
2023-04-18T14:17:45.688Z,102473.50
2023-04-18T14:20:15.639Z,102466.16
2023-04-18T14:22:43.879Z,102471.56
2023-04-18T14:25:12.325Z,102479.94
2023-04-18T14:27:40.559Z,102470.56
2023-04-18T14:30:10.827Z,102479.75
2023-04-18T14:32:39.200Z,102476.03
2023-04-18T14:35:11.358Z,102466.50
2023-04-18T14:37:39.694Z,102471.63
2023-04-18T14:40:09.830Z,102464.78
2023-04-18T14:42:38.778Z,102461.44
2023-04-18T14:45:08.784Z,102466.44
2023-04-18T14:47:39.467Z,102457.63
2023-04-18T14:50:11.835Z,102465.03
2023-04-18T14:52:40.909Z,102471.91
2023-04-18T14:55:10.905Z,102464.31
2023-04-18T14:57:39.920Z,102453.97
2023-04-18T15:00:12.056Z,102451.69
2023-04-18T15:02:41.109Z,102458.72
2023-04-18T15:05:12.299Z,102464.66
2023-04-18T15:07:40.831Z,102463.94
2023-04-18T15:10:12.622Z,102457.34
2023-04-18T15:12:41.595Z,102462.13
2023-04-18T15:15:11.027Z,102456.75
2023-04-18T15:17:39.317Z,102470.88
2023-04-18T15:20:11.369Z,102454.00
2023-04-18T15:22:39.562Z,102464.13
2023-04-18T15:25:09.001Z,102468.00
2023-04-18T15:27:37.241Z,102459.16
2023-04-18T15:30:08.242Z,102468.94
2023-04-18T15:32:36.899Z,102453.69
2023-04-18T15:35:06.612Z,102457.81
2023-04-18T15:37:36.724Z,102451.25
2023-04-18T15:40:09.518Z,102454.47
2023-04-18T15:42:38.036Z,102449.94
2023-04-18T15:45:07.963Z,102445.50
2023-04-18T15:47:36.343Z,102461.06
2023-04-18T15:50:04.983Z,102448.59
2023-04-18T15:52:33.241Z,102443.13
2023-04-18T15:55:02.848Z,102442.44
2023-04-18T15:57:31.247Z,102451.06
2023-04-18T15:59:59.715Z,102445.63
2023-04-18T16:02:28.471Z,102438.59
2023-04-18T16:04:56.913Z,102451.44
2023-04-18T16:07:25.439Z,102444.72
2023-04-18T16:09:53.821Z,102439.97
2023-04-18T16:12:23.981Z,102438.41
2023-04-18T16:14:52.254Z,102441.44
2023-04-18T16:17:20.479Z,102440.63
2023-04-18T16:19:48.698Z,102433.59
2023-04-18T16:22:18.236Z,102433.19
2023-04-18T16:24:46.790Z,102437.47
2023-04-18T16:27:15.373Z,102435.91
2023-04-18T16:29:45.614Z,102429.66
2023-04-18T16:32:13.907Z,102430.31
2023-04-18T16:34:42.105Z,102422.50
2023-04-18T16:37:10.492Z,102421.56
2023-04-18T16:39:38.768Z,102432.06
2023-04-18T16:42:07.175Z,102433.19
2023-04-18T16:44:35.646Z,102436.56
2023-04-18T16:47:08.130Z,102431.84
2023-04-18T16:49:37.618Z,102426.63
2023-04-18T16:52:06.312Z,102425.03
2023-04-18T16:54:34.584Z,102426.16
2023-04-18T16:57:02.851Z,102419.44
2023-04-18T16:59:31.050Z,102433.44
2023-04-18T17:02:00.081Z,102416.63
2023-04-18T17:04:29.884Z,102427.88
2023-04-18T17:06:58.215Z,102429.78
2023-04-18T17:09:26.821Z,102425.84
2023-04-18T17:11:55.118Z,102428.56
2023-04-18T17:14:23.338Z,102427.75
2023-04-18T17:16:53.460Z,102427.31
2023-04-18T17:19:22.756Z,102429.13
2023-04-18T17:21:52.362Z,102425.94
2023-04-18T17:24:22.466Z,102429.81
2023-04-18T17:26:51.178Z,102425.03
2023-04-18T17:29:19.643Z,102430.38
2023-04-18T17:31:48.073Z,102434.56
2023-04-18T17:34:16.382Z,102432.56
2023-04-18T17:36:44.584Z,102429.34
2023-04-18T17:39:16.458Z,102427.66
2023-04-18T17:41:46.198Z,102422.09
2023-04-18T17:44:14.455Z,102427.41
2023-04-18T17:46:42.843Z,102427.75
2023-04-18T17:49:11.373Z,102424.94
2023-04-18T17:51:39.634Z,102427.16
2023-04-18T17:54:08.113Z,102430.59
2023-04-18T17:56:37.842Z,102430.44
2023-04-18T17:59:07.420Z,102431.59
2023-04-18T18:01:36.364Z,102438.53
2023-04-18T18:04:04.954Z,102441.47
2023-04-18T18:06:33.319Z,102434.28
2023-04-18T18:09:01.852Z,102434.66
2023-04-18T18:11:30.516Z,102443.16
2023-04-18T18:14:00.928Z,102445.72
2023-04-18T18:16:29.428Z,102443.69
2023-04-18T18:19:00.089Z,102454.00
2023-04-18T18:21:29.406Z,102452.28
2023-04-18T18:23:57.650Z,102454.38
2023-04-18T18:26:26.686Z,102454.28
2023-04-18T18:28:55.071Z,102453.38
2023-04-18T18:31:25.086Z,102454.34
2023-04-18T18:33:53.508Z,102457.75
2023-04-18T18:36:21.777Z,102464.19
2023-04-18T18:38:50.049Z,102460.50
2023-04-18T18:41:18.361Z,102469.69
2023-04-18T18:43:46.565Z,102466.06
2023-04-18T18:46:16.515Z,102477.91
2023-04-18T18:48:46.402Z,102472.34
2023-04-18T18:51:14.744Z,102473.78
2023-04-18T18:53:43.028Z,102478.66
2023-04-18T18:56:11.288Z,102488.91
2023-04-18T18:58:39.566Z,102485.59
2023-04-18T19:01:08.324Z,102481.59
2023-04-18T19:03:36.866Z,102491.22
2023-04-18T19:06:08.385Z,102490.25
2023-04-18T19:08:36.917Z,102492.88
2023-04-18T19:11:05.505Z,102488.84
2023-04-18T19:13:33.956Z,102489.53
2023-04-18T19:16:02.294Z,102497.69
2023-04-18T19:18:30.978Z,102496.09
2023-04-18T19:20:59.241Z,102494.34
2023-04-18T19:23:30.451Z,102506.69
2023-04-18T19:25:58.910Z,102507.63
2023-04-18T19:28:27.697Z,102505.09
2023-04-18T19:30:55.889Z,102509.31
2023-04-18T19:33:24.583Z,102508.34
2023-04-18T19:35:52.784Z,102509.31
2023-04-18T19:38:21.101Z,102508.03
2023-04-18T19:40:50.712Z,102508.22
2023-04-18T19:43:18.996Z,102503.44
2023-04-18T19:45:47.201Z,102509.53
2023-04-18T19:48:15.617Z,102510.97
2023-04-18T19:50:44.651Z,102510.81
2023-04-18T19:53:12.985Z,102513.38
2023-04-18T19:55:41.722Z,102510.19
2023-04-18T19:58:11.376Z,102510.53
2023-04-18T20:00:39.592Z,102512.25
2023-04-18T20:03:08.253Z,102512.94
2023-04-18T20:05:36.894Z,102516.25
2023-04-18T20:08:05.280Z,102518.06
2023-04-18T20:10:34.546Z,102516.75
2023-04-18T20:13:02.739Z,102508.50
2023-04-18T20:15:32.343Z,102513.72
2023-04-18T20:18:00.784Z,102518.03
2023-04-18T20:20:29.438Z,102519.84
2023-04-18T20:22:57.806Z,102522.38
2023-04-18T20:25:26.102Z,102520.78
2023-04-18T20:27:56.246Z,102525.25
2023-04-18T20:30:24.787Z,102518.53
2023-04-18T20:32:54.380Z,102518.88
2023-04-18T20:35:22.766Z,102519.03
2023-04-18T20:37:50.986Z,102519.69
2023-04-18T20:40:19.236Z,102525.41
2023-04-18T20:42:47.674Z,102536.13
2023-04-18T20:45:15.957Z,102524.78
2023-04-18T20:47:44.637Z,102537.06
2023-04-18T20:50:16.131Z,102528.75
2023-04-18T20:52:44.344Z,102528.28
2023-04-18T20:55:12.726Z,102528.94
2023-04-18T20:57:40.934Z,102535.31
2023-04-18T21:00:10.680Z,102540.53
2023-04-18T21:02:39.097Z,102526.53
2023-04-18T21:05:07.991Z,102538.81
2023-04-18T21:07:37.718Z,102546.44
2023-04-18T21:10:06.807Z,102542.94
2023-04-18T21:12:35.143Z,102547.91
2023-04-18T21:15:05.489Z,102547.41
2023-04-18T21:17:33.800Z,102546.91
2023-04-18T21:20:02.095Z,102548.69
2023-04-18T21:22:30.437Z,102544.66
2023-04-18T21:24:59.970Z,102546.09
2023-04-18T21:27:28.130Z,102545.31
2023-04-18T21:29:56.555Z,102551.50
2023-04-18T21:32:24.868Z,102551.06
2023-04-18T21:34:53.128Z,102545.94
2023-04-18T21:37:21.488Z,102553.25
2023-04-18T21:39:49.930Z,102553.91
2023-04-18T21:42:19.497Z,102551.81
2023-04-18T21:44:47.738Z,102554.53
2023-04-18T21:47:15.964Z,102553.72
2023-04-18T21:49:44.115Z,102549.09
2023-04-18T21:52:12.432Z,102551.34
2023-04-18T21:54:41.836Z,102549.72
2023-04-18T21:57:10.092Z,102551.66
2023-04-18T21:59:39.866Z,102560.56
2023-04-18T22:02:08.189Z,102552.44
2023-04-18T22:04:38.160Z,102551.81
2023-04-18T22:07:06.611Z,102545.28
2023-04-18T22:09:36.276Z,102548.75
2023-04-18T22:12:05.146Z,102539.84
2023-04-18T22:14:33.433Z,102546.06
2023-04-18T22:17:04.864Z,102548.00
2023-04-18T22:19:33.315Z,102541.47
2023-04-18T22:22:01.710Z,102547.34
2023-04-18T22:24:30.049Z,102554.38
2023-04-18T22:26:58.263Z,102558.69
2023-04-18T22:29:26.561Z,102555.34
2023-04-18T22:31:54.809Z,102554.72
2023-04-18T22:34:24.608Z,102554.41
2023-04-18T22:36:52.849Z,102546.44
2023-04-18T22:39:21.146Z,102548.50
2023-04-18T22:41:49.777Z,102550.63
2023-04-18T22:44:17.982Z,102553.78
2023-04-18T22:46:48.013Z,102556.69
2023-04-18T22:49:17.992Z,102550.59
2023-04-18T22:51:47.624Z,102549.78
2023-04-18T22:54:16.144Z,102561.63
2023-04-18T22:56:44.407Z,102556.69
2023-04-18T22:59:12.844Z,102553.34
2023-04-18T23:01:41.230Z,102549.50
2023-04-18T23:04:09.725Z,102548.41
2023-04-18T23:06:38.803Z,102551.59
2023-04-18T23:09:09.733Z,102542.00
2023-04-18T23:11:37.906Z,102538.19
2023-04-18T23:14:06.382Z,102542.50
2023-04-18T23:16:34.727Z,102532.44
2023-04-18T23:19:02.893Z,102540.25
2023-04-18T23:21:31.751Z,102545.38
2023-04-18T23:24:00.253Z,102546.97
2023-04-18T23:26:29.796Z,102549.34
2023-04-18T23:28:58.107Z,102550.94
2023-04-18T23:31:26.625Z,102557.19
2023-04-18T23:33:54.947Z,102546.31
2023-04-18T23:36:23.180Z,102545.22
2023-04-18T23:38:51.363Z,102547.91
2023-04-18T23:41:19.584Z,102539.78
2023-04-18T23:43:49.140Z,102546.84
2023-04-18T23:46:17.650Z,102551.09
2023-04-18T23:48:45.893Z,102557.00
2023-04-18T23:51:14.130Z,102548.06
2023-04-18T23:53:42.328Z,102554.31
2023-04-18T23:56:10.690Z,102542.97
2023-04-18T23:58:38.914Z,102552.06
